Drexel, Missouri
Current Conditions -  °F | °C
As of 6:53 PM on Saturday 20 Dec 2014 (Local Time) from KOJC Reporting Station
Haze Haze  
Wind Chill: 30°   Ceiling: Unl
Heat Index: 37°   Visibility: 6mi
Dew Point: 34°   Wind: 10mph
Humidity: 89%   Direction: 170°S
Pressure: 30.14"   Gusts: NA
Location:  38.48°N, 94.61°W
Report Text: KOJC 210053Z 17009KT 6SM BR CLR 03/01 A3014 RMK AO2 SLP213 T00280011
Loading
Personal Weather Stations






























Interactive Weather Map New forecast layout! Learn more

10-Day Weather Forecast

Advertisements
Track Severe Weather on mobile